Keumyang Family — DSNO8 — position and weather

sailwx.info

Track history (hours):
 
Tides and Currents Weather Stations Pressure Air Temp Water Temp Dewpoint Dewpoint Depression Visibility Wind Speed Wind Dir Waves Ship Positions

Keumyang Family

Last reported at 2015-May-21 07:06 UTC. Time now 2015-May-26 11:48 UTC.
Position N 35°05' E 139°41'.

Length 95 m; draft 3.8 m.

Type: Cargo ship. MMSI: 441416000.

Date/timePositionNaut miles runAvg speedWind from/ knotsBaromVisibWave heightAir tempDewpointWater temp
2015-May-21 07:06N 35°05' E 139°41'611.9
2015-May-21 06:33N 35°10' E 139°45'1010.4
2015-May-21 05:33N 35°20' E 139°42'1111.1
2015-May-21 04:33N 35°29' E 139°51'1212.0
2015-May-21 03:33N 35°39' E 139°59'2 1.5
2015-May-21 02:29N 35°41' E 139°58'0 0.0
2015-May-21 01:29N 35°41' E 139°58'0 0.0
2015-May-20 23:23N 35°41' E 139°58'0 0.0
2015-May-20 22:29N 35°41' E 139°58'0 0.0
2015-May-20 21:34N 35°41' E 139°58'6 5.6
2015-May-20 20:33N 35°35' E 139°59'0 0.2
2015-May-20 19:29N 35°35' E 139°60'0 0.0
2015-May-20 18:29N 35°35' E 139°60'0 0.1
2015-May-20 17:29N 35°35' E 139°60'0 0.0
2015-May-20 16:23N 35°35' E 139°60'0 0.0
2015-May-20 15:29N 35°35' E 139°60'0 0.0
2015-May-20 14:05N 35°35' E 139°60'0 0.1
2015-May-20 13:29N 35°35' E 139°60'0 0.0
2015-May-20 12:29N 35°35' E 139°60'0 0.0
2015-May-20 11:17N 35°35' E 139°60'0 0.0
2015-May-20 10:29N 35°35' E 139°60'0 0.0
2015-May-20 09:17N 35°35' E 139°60'0 0.0
2015-May-20 08:29N 35°35' E 139°60'2 2.4
2015-May-20 07:33N 35°34' E 139°57'1010.4
2015-May-20 06:33N 35°29' E 139°46'0 0.3
2015-May-20 05:33N 35°30' E 139°46'0 0.0
2015-May-20 04:33N 35°30' E 139°46'0 0.0
2015-May-20 03:34N 35°30' E 139°46'0 0.0
2015-May-20 02:33N 35°30' E 139°46'0 0.0
2015-May-20 01:33N 35°30' E 139°46'0 0.0
2015-May-20 00:33N 35°30' E 139°46'0 0.0
2015-May-19 23:33N 35°30' E 139°46'0 0.0
2015-May-19 22:33N 35°30' E 139°46'0 0.0
2015-May-19 21:34N 35°30' E 139°46'2 1.9
2015-May-19 20:32N 35°28' E 139°48'0 0.0
2015-May-19 19:32N 35°28' E 139°48'0 0.0
2015-May-19 18:32N 35°28' E 139°48'0 0.0
2015-May-19 17:33N 35°28' E 139°48'0 0.0
2015-May-19 16:33N 35°28' E 139°48'0 0.0
2015-May-19 15:33N 35°28' E 139°48'1 1.1
2015-May-19 14:34N 35°27' E 139°48'9 8.8
2015-May-19 13:33N 35°19' E 139°44'1110.7
2015-May-19 12:33N 35°08' E 139°46'1211.8
2015-May-19 11:33N 34°59' E 139°37'233 9.3
2015-May-18 10:29N 34°15' E 134°59'19 9.7
2015-May-18 08:33N 34°34' E 135°02'9 8.2
2015-May-18 07:29N 34°34' E 134°52'243 9.8
2015-May-17 06:33N 34°02' E 129°60'1211.7
2015-May-17 05:32N 34°02' E 129°46'1211.9
2015-May-17 04:33N 34°03' E 129°32'1312.7
2015-May-17 03:34N 34°02' E 129°16'  
Track history (hours):
 
Tides and Currents Weather Stations Pressure Air Temp Water Temp Dewpoint Dewpoint Depression Visibility Wind Speed Wind Dir Waves Ship Positions

Keumyang Family

Last reported at 2015-May-21 07:06 UTC. Time now 2015-May-26 11:48 UTC.
Position N 35°05' E 139°41'.

Length 95 m; draft 3.8 m.

Type: Cargo ship. MMSI: 441416000.

Date/timePositionNaut miles runAvg speedWind from/ knotsBaromVisibWave heightAir tempDewpointWater temp
2015-May-21 07:06N 35°05' E 139°41'611.9
2015-May-21 06:33N 35°10' E 139°45'1010.4
2015-May-21 05:33N 35°20' E 139°42'1111.1
2015-May-21 04:33N 35°29' E 139°51'1212.0
2015-May-21 03:33N 35°39' E 139°59'2 1.5
2015-May-21 02:29N 35°41' E 139°58'0 0.0
2015-May-21 01:29N 35°41' E 139°58'0 0.0
2015-May-20 23:23N 35°41' E 139°58'0 0.0
2015-May-20 22:29N 35°41' E 139°58'0 0.0
2015-May-20 21:34N 35°41' E 139°58'6 5.6
2015-May-20 20:33N 35°35' E 139°59'0 0.2
2015-May-20 19:29N 35°35' E 139°60'0 0.0
2015-May-20 18:29N 35°35' E 139°60'0 0.1
2015-May-20 17:29N 35°35' E 139°60'0 0.0
2015-May-20 16:23N 35°35' E 139°60'0 0.0
2015-May-20 15:29N 35°35' E 139°60'0 0.0
2015-May-20 14:05N 35°35' E 139°60'0 0.1
2015-May-20 13:29N 35°35' E 139°60'0 0.0
2015-May-20 12:29N 35°35' E 139°60'0 0.0
2015-May-20 11:17N 35°35' E 139°60'0 0.0
2015-May-20 10:29N 35°35' E 139°60'0 0.0
2015-May-20 09:17N 35°35' E 139°60'0 0.0
2015-May-20 08:29N 35°35' E 139°60'2 2.4
2015-May-20 07:33N 35°34' E 139°57'1010.4
2015-May-20 06:33N 35°29' E 139°46'0 0.3
2015-May-20 05:33N 35°30' E 139°46'0 0.0
2015-May-20 04:33N 35°30' E 139°46'0 0.0
2015-May-20 03:34N 35°30' E 139°46'0 0.0
2015-May-20 02:33N 35°30' E 139°46'0 0.0
2015-May-20 01:33N 35°30' E 139°46'0 0.0
2015-May-20 00:33N 35°30' E 139°46'0 0.0
2015-May-19 23:33N 35°30' E 139°46'0 0.0
2015-May-19 22:33N 35°30' E 139°46'0 0.0
2015-May-19 21:34N 35°30' E 139°46'2 1.9
2015-May-19 20:32N 35°28' E 139°48'0 0.0
2015-May-19 19:32N 35°28' E 139°48'0 0.0
2015-May-19 18:32N 35°28' E 139°48'0 0.0
2015-May-19 17:33N 35°28' E 139°48'0 0.0
2015-May-19 16:33N 35°28' E 139°48'0 0.0
2015-May-19 15:33N 35°28' E 139°48'1 1.1
2015-May-19 14:34N 35°27' E 139°48'9 8.8
2015-May-19 13:33N 35°19' E 139°44'1110.7
2015-May-19 12:33N 35°08' E 139°46'1211.8
2015-May-19 11:33N 34°59' E 139°37'233 9.3
2015-May-18 10:29N 34°15' E 134°59'19 9.7
2015-May-18 08:33N 34°34' E 135°02'9 8.2
2015-May-18 07:29N 34°34' E 134°52'243 9.8
2015-May-17 06:33N 34°02' E 129°60'1211.7
2015-May-17 05:32N 34°02' E 129°46'1211.9
2015-May-17 04:33N 34°03' E 129°32'1312.7
2015-May-17 03:34N 34°02' E 129°16'  

Dump ship's entire track history